sensor_id;sensor_type;location;lat;lon;timestamp;pressure;altitude;pressure_sealevel;temperature
63158;BMP280;49381;49.338;8.794;2022-11-15T00:01:30;100080.81;;;9.10
63158;BMP280;49381;49.338;8.794;2022-11-15T00:03:30;100086.75;;;9.15
63158;BMP280;49381;49.338;8.794;2022-11-15T00:05:35;100090.97;;;9.16
63158;BMP280;49381;49.338;8.794;2022-11-15T00:07:35;100085.03;;;9.13
63158;BMP280;49381;49.338;8.794;2022-11-15T00:09:36;100078.28;;;9.13
63158;BMP280;49381;49.338;8.794;2022-11-15T00:11:36;100083.38;;;9.16
63158;BMP280;49381;49.338;8.794;2022-11-15T00:13:36;100083.34;;;9.13
63158;BMP280;49381;49.338;8.794;2022-11-15T00:15:37;100084.19;;;9.12
63158;BMP280;49381;49.338;8.794;2022-11-15T00:17:38;100083.38;;;9.16
63158;BMP280;49381;49.338;8.794;2022-11-15T00:19:38;100082.50;;;9.13
63158;BMP280;49381;49.338;8.794;2022-11-15T00:21:40;100073.28;;;9.15
63158;BMP280;49381;49.338;8.794;2022-11-15T00:23:41;100072.44;;;9.17
63158;BMP280;49381;49.338;8.794;2022-11-15T00:25:41;100072.44;;;9.17
63158;BMP280;49381;49.338;8.794;2022-11-15T00:27:41;100069.06;;;9.18
63158;BMP280;49381;49.338;8.794;2022-11-15T00:29:42;100072.44;;;9.19
63158;BMP280;49381;49.338;8.794;2022-11-15T00:31:42;100072.44;;;9.17
63158;BMP280;49381;49.338;8.794;2022-11-15T00:33:43;100070.69;;;9.10
63158;BMP280;49381;49.338;8.794;2022-11-15T00:35:44;100069.03;;;9.12
63158;BMP280;49381;49.338;8.794;2022-11-15T00:37:45;100074.06;;;9.12
63158;BMP280;49381;49.338;8.794;2022-11-15T00:39:46;100070.66;;;9.09
63158;BMP280;49381;49.338;8.794;2022-11-15T00:41:46;100072.41;;;9.13
63158;BMP280;49381;49.338;8.794;2022-11-15T00:43:46;100064.84;;;9.17
63158;BMP280;49381;49.338;8.794;2022-11-15T00:45:47;100070.69;;;9.12
63158;BMP280;49381;49.338;8.794;2022-11-15T00:47:47;100061.41;;;9.09
63158;BMP280;49381;49.338;8.794;2022-11-15T00:49:47;100067.34;;;9.10
63158;BMP280;49381;49.338;8.794;2022-11-15T00:51:48;100067.34;;;9.10
63158;BMP280;49381;49.338;8.794;2022-11-15T00:53:49;100060.59;;;9.13
63158;BMP280;49381;49.338;8.794;2022-11-15T00:55:50;100052.97;;;9.06
63158;BMP280;49381;49.338;8.794;2022-11-15T00:57:50;100055.50;;;9.09
63158;BMP280;49381;49.338;8.794;2022-11-15T00:59:50;100055.53;;;9.10
63158;BMP280;49381;49.338;8.794;2022-11-15T01:01:51;100050.47;;;9.12
63158;BMP280;49381;49.338;8.794;2022-11-15T01:03:51;100052.97;;;9.07
63158;BMP280;49381;49.338;8.794;2022-11-15T01:05:51;100046.22;;;9.09
63158;BMP280;49381;49.338;8.794;2022-11-15T01:07:52;100047.09;;;9.11
63158;BMP280;49381;49.338;8.794;2022-11-15T01:09:53;100038.69;;;9.12
63158;BMP280;49381;49.338;8.794;2022-11-15T01:11:54;100042.84;;;9.07
63158;BMP280;49381;49.338;8.794;2022-11-15T01:13:55;100042.00;;;9.05
63158;BMP280;49381;49.338;8.794;2022-11-15T01:15:55;100042.00;;;9.05
63158;BMP280;49381;49.338;8.794;2022-11-15T01:17:55;100039.44;;;9.01
63158;BMP280;49381;49.338;8.794;2022-11-15T01:19:56;100034.34;;;9.00
63158;BMP280;49381;49.338;8.794;2022-11-15T01:21:56;100042.81;;;9.02
63158;BMP280;49381;49.338;8.794;2022-11-15T01:23:57;100033.50;;;8.96
63158;BMP280;49381;49.338;8.794;2022-11-15T01:25:59;100027.66;;;9.02
63158;BMP280;49381;49.338;8.794;2022-11-15T01:28:00;100032.66;;;8.96
63158;BMP280;49381;49.338;8.794;2022-11-15T01:30:00;100024.22;;;8.95
63158;BMP280;49381;49.338;8.794;2022-11-15T01:32:01;100031.78;;;8.94
63158;BMP280;49381;49.338;8.794;2022-11-15T01:34:01;100026.72;;;8.92
63158;BMP280;49381;49.338;8.794;2022-11-15T01:36:03;100038.56;;;8.99
63158;BMP280;49381;49.338;8.794;2022-11-15T01:38:03;100025.97;;;9.02
63158;BMP280;49381;49.338;8.794;2022-11-15T01:40:05;100020.03;;;8.96
63158;BMP280;49381;49.338;8.794;2022-11-15T01:42:10;100020.88;;;8.95
63158;BMP280;49381;49.338;8.794;2022-11-15T01:44:42;100016.66;;;8.98
63158;BMP280;49381;49.338;8.794;2022-11-15T01:46:44;100014.94;;;8.93
63158;BMP280;49381;49.338;8.794;2022-11-15T01:48:46;100004.84;;;8.96
63158;BMP280;49381;49.338;8.794;2022-11-15T01:50:46;100009.91;;;8.96
63158;BMP280;49381;49.338;8.794;2022-11-15T01:52:46;100006.53;;;8.98
63158;BMP280;49381;49.338;8.794;2022-11-15T01:54:48;100009.03;;;8.94
63158;BMP280;49381;49.338;8.794;2022-11-15T01:56:52;100012.41;;;8.90
63158;BMP280;49381;49.338;8.794;2022-11-15T01:58:56;99997.25;;;8.90
63158;BMP280;49381;49.338;8.794;2022-11-15T02:00:58;99997.25;;;8.93
63158;BMP280;49381;49.338;8.794;2022-11-15T02:02:59;99992.19;;;8.93
63158;BMP280;49381;49.338;8.794;2022-11-15T02:04:59;99998.13;;;8.95
63158;BMP280;49381;49.338;8.794;2022-11-15T02:07:01;99996.41;;;8.92
63158;BMP280;49381;49.338;8.794;2022-11-15T02:09:03;99989.66;;;8.91
63158;BMP280;49381;49.338;8.794;2022-11-15T02:11:04;99989.63;;;8.87
63158;BMP280;49381;49.338;8.794;2022-11-15T02:13:04;99986.25;;;8.88
63158;BMP280;49381;49.338;8.794;2022-11-15T02:15:08;99985.44;;;8.90
63158;BMP280;49381;49.338;8.794;2022-11-15T02:17:24;99982.88;;;8.87
63158;BMP280;49381;49.338;8.794;2022-11-15T02:19:47;99979.50;;;8.87
63158;BMP280;49381;49.338;8.794;2022-11-15T02:22:00;99979.47;;;8.81
63158;BMP280;49381;49.338;8.794;2022-11-15T02:24:27;99979.44;;;8.78
63158;BMP280;49381;49.338;8.794;2022-11-15T02:26:50;99975.25;;;8.84
63158;BMP280;49381;49.338;8.794;2022-11-15T02:29:01;99981.16;;;8.82
63158;BMP280;49381;49.338;8.794;2022-11-15T02:31:10;99976.03;;;8.72
63158;BMP280;49381;49.338;8.794;2022-11-15T02:33:21;99973.53;;;8.76
63158;BMP280;49381;49.338;8.794;2022-11-15T02:35:30;99972.69;;;8.77
63158;BMP280;49381;49.338;8.794;2022-11-15T02:37:42;99970.97;;;8.73
63158;BMP280;49381;49.338;8.794;2022-11-15T02:39:46;99970.13;;;8.74
63158;BMP280;49381;49.338;8.794;2022-11-15T02:41:53;99960.91;;;8.77
63158;BMP280;49381;49.338;8.794;2022-11-15T02:43:57;99955.84;;;8.77
63158;BMP280;49381;49.338;8.794;2022-11-15T02:46:06;99946.50;;;8.69
63158;BMP280;49381;49.338;8.794;2022-11-15T02:48:10;99953.19;;;8.64
63158;BMP280;49381;49.338;8.794;2022-11-15T02:50:13;99941.41;;;8.65
63158;BMP280;49381;49.338;8.794;2022-11-15T02:52:16;99936.34;;;8.60
63158;BMP280;49381;49.338;8.794;2022-11-15T02:54:20;99941.41;;;8.65
63158;BMP280;49381;49.338;8.794;2022-11-15T02:56:20;99938.00;;;8.58
63158;BMP280;49381;49.338;8.794;2022-11-15T02:58:45;99940.53;;;8.58
63158;BMP280;49381;49.338;8.794;2022-11-15T03:00:53;99945.63;;;8.64
63158;BMP280;49381;49.338;8.794;2022-11-15T03:03:19;99943.91;;;8.59
63158;BMP280;49381;49.338;8.794;2022-11-15T03:05:30;99941.38;;;8.56
63158;BMP280;49381;49.338;8.794;2022-11-15T03:07:39;99937.13;;;8.52
63158;BMP280;49381;49.338;8.794;2022-11-15T03:09:50;99947.22;;;8.51
63158;BMP280;49381;49.338;8.794;2022-11-15T03:12:03;99942.13;;;8.48
63158;BMP280;49381;49.338;8.794;2022-11-15T03:14:11;99939.56;;;8.45
63158;BMP280;49381;49.338;8.794;2022-11-15T03:16:16;99940.44;;;8.48
63158;BMP280;49381;49.338;8.794;2022-11-15T03:18:23;99927.78;;;8.44
63158;BMP280;49381;49.338;8.794;2022-11-15T03:20:26;99929.47;;;8.42
63158;BMP280;49381;49.338;8.794;2022-11-15T03:22:30;99925.28;;;8.47
63158;BMP280;49381;49.338;8.794;2022-11-15T03:24:36;99925.25;;;8.42
63158;BMP280;49381;49.338;8.794;2022-11-15T03:26:39;99926.06;;;8.40
63158;BMP280;49381;49.338;8.794;2022-11-15T03:28:42;99929.47;;;8.45
63158;BMP280;49381;49.338;8.794;2022-11-15T03:30:45;99925.34;;;8.52
63158;BMP280;49381;49.338;8.794;2022-11-15T03:32:52;99927.84;;;8.52
63158;BMP280;49381;49.338;8.794;2022-11-15T03:34:58;99922.81;;;8.52
63158;BMP280;49381;49.338;8.794;2022-11-15T03:37:01;99927.84;;;8.51
63158;BMP280;49381;49.338;8.794;2022-11-15T03:39:05;99923.66;;;8.52
63158;BMP280;49381;49.338;8.794;2022-11-15T03:41:10;99933.75;;;8.53
63158;BMP280;49381;49.338;8.794;2022-11-15T03:43:15;99926.22;;;8.56
63158;BMP280;49381;49.338;8.794;2022-11-15T03:45:23;99934.69;;;8.64
63158;BMP280;49381;49.338;8.794;2022-11-15T03:47:29;99927.94;;;8.64
63158;BMP280;49381;49.338;8.794;2022-11-15T03:49:33;99927.09;;;8.61
63158;BMP280;49381;49.338;8.794;2022-11-15T03:51:35;99925.38;;;8.57
63158;BMP280;49381;49.338;8.794;2022-11-15T03:53:36;99922.00;;;8.58
63158;BMP280;49381;49.338;8.794;2022-11-15T03:55:36;99922.03;;;8.61
63158;BMP280;49381;49.338;8.794;2022-11-15T03:57:36;99924.56;;;8.61
63158;BMP280;49381;49.338;8.794;2022-11-15T03:59:37;99924.59;;;8.67
63158;BMP280;49381;49.338;8.794;2022-11-15T04:01:37;99920.44;;;8.70
63158;BMP280;49381;49.338;8.794;2022-11-15T04:03:37;99925.41;;;8.64
63158;BMP280;49381;49.338;8.794;2022-11-15T04:05:37;99926.25;;;8.60
63158;BMP280;49381;49.338;8.794;2022-11-15T04:07:39;99926.28;;;8.66
63158;BMP280;49381;49.338;8.794;2022-11-15T04:09:40;99919.56;;;8.68
63158;BMP280;49381;49.338;8.794;2022-11-15T04:11:40;99911.16;;;8.72
63158;BMP280;49381;49.338;8.794;2022-11-15T04:13:40;99920.44;;;8.75
63158;BMP280;49381;49.338;8.794;2022-11-15T04:15:40;99928.81;;;8.69
63158;BMP280;49381;49.338;8.794;2022-11-15T04:17:42;99922.97;;;8.73
63158;BMP280;49381;49.338;8.794;2022-11-15T04:19:43;99921.31;;;8.77
63158;BMP280;49381;49.338;8.794;2022-11-15T04:21:43;99921.28;;;8.74
63158;BMP280;49381;49.338;8.794;2022-11-15T04:23:45;99917.09;;;8.78
63158;BMP280;49381;49.338;8.794;2022-11-15T04:25:46;99906.97;;;8.74
63158;BMP280;49381;49.338;8.794;2022-11-15T04:27:47;99906.16;;;8.78
63158;BMP280;49381;49.338;8.794;2022-11-15T04:29:47;99909.50;;;8.74
63158;BMP280;49381;49.338;8.794;2022-11-15T04:31:48;99906.09;;;8.66
63158;BMP280;49381;49.338;8.794;2022-11-15T04:33:48;99902.75;;;8.73
63158;BMP280;49381;49.338;8.794;2022-11-15T04:35:48;99894.38;;;8.77
63158;BMP280;49381;49.338;8.794;2022-11-15T04:37:49;99896.91;;;8.80
63158;BMP280;49381;49.338;8.794;2022-11-15T04:39:50;99896.91;;;8.84
63158;BMP280;49381;49.338;8.794;2022-11-15T04:41:51;99891.06;;;8.88
63158;BMP280;49381;49.338;8.794;2022-11-15T04:43:51;99889.38;;;8.86
63158;BMP280;49381;49.338;8.794;2022-11-15T04:45:52;99886.03;;;8.90
63158;BMP280;49381;49.338;8.794;2022-11-15T04:47:52;99886.88;;;8.93
63158;BMP280;49381;49.338;8.794;2022-11-15T04:49:52;99881.84;;;8.96
63158;BMP280;49381;49.338;8.794;2022-11-15T04:51:53;99896.19;;;9.00
63158;BMP280;49381;49.338;8.794;2022-11-15T04:53:53;99890.31;;;9.01
63158;BMP280;49381;49.338;8.794;2022-11-15T04:55:55;99884.41;;;9.03
63158;BMP280;49381;49.338;8.794;2022-11-15T04:57:58;99881.06;;;9.06
63158;BMP280;49381;49.338;8.794;2022-11-15T04:59:59;99886.13;;;9.07
63158;BMP280;49381;49.338;8.794;2022-11-15T05:01:59;99879.38;;;9.05
63158;BMP280;49381;49.338;8.794;2022-11-15T05:04:00;99874.31;;;9.05
63158;BMP280;49381;49.338;8.794;2022-11-15T05:06:00;99880.22;;;9.05
63158;BMP280;49381;49.338;8.794;2022-11-15T05:08:01;99876.00;;;9.07
63158;BMP280;49381;49.338;8.794;2022-11-15T05:10:01;99863.38;;;9.09
63158;BMP280;49381;49.338;8.794;2022-11-15T05:12:03;99857.47;;;9.08
63158;BMP280;49381;49.338;8.794;2022-11-15T05:14:03;99849.03;;;9.05
63158;BMP280;49381;49.338;8.794;2022-11-15T05:16:04;99866.72;;;9.09
63158;BMP280;49381;49.338;8.794;2022-11-15T05:18:04;99862.53;;;9.07
63158;BMP280;49381;49.338;8.794;2022-11-15T05:20:05;99863.34;;;9.04
63158;BMP280;49381;49.338;8.794;2022-11-15T05:22:06;99871.75;;;9.03
63158;BMP280;49381;49.338;8.794;2022-11-15T05:24:08;99860.84;;;9.07
63158;BMP280;49381;49.338;8.794;2022-11-15T05:26:09;99866.75;;;9.06
63158;BMP280;49381;49.338;8.794;2022-11-15T05:28:11;99859.16;;;9.06
63158;BMP280;49381;49.338;8.794;2022-11-15T05:30:11;99860.00;;;9.07
63158;BMP280;49381;49.338;8.794;2022-11-15T05:32:12;99865.03;;;9.01
63158;BMP280;49381;49.338;8.794;2022-11-15T05:34:13;99856.53;;;8.92
63158;BMP280;49381;49.338;8.794;2022-11-15T05:36:16;99863.34;;;9.00
63158;BMP280;49381;49.338;8.794;2022-11-15T05:38:18;99857.44;;;9.02
63158;BMP280;49381;49.338;8.794;2022-11-15T05:40:18;99849.84;;;9.04
63158;BMP280;49381;49.338;8.794;2022-11-15T05:42:18;99853.25;;;9.09
63158;BMP280;49381;49.338;8.794;2022-11-15T05:44:22;99849.91;;;9.13
63158;BMP280;49381;49.338;8.794;2022-11-15T05:46:23;99855.84;;;9.15
63158;BMP280;49381;49.338;8.794;2022-11-15T05:48:23;99853.28;;;9.13
63158;BMP280;49381;49.338;8.794;2022-11-15T05:50:24;99851.59;;;9.12
63158;BMP280;49381;49.338;8.794;2022-11-15T05:52:27;99846.56;;;9.15
63158;BMP280;49381;49.338;8.794;2022-11-15T05:54:30;99857.50;;;9.14
63158;BMP280;49381;49.338;8.794;2022-11-15T05:56:31;99858.38;;;9.16
63158;BMP280;49381;49.338;8.794;2022-11-15T05:58:31;99860.03;;;9.13
63158;BMP280;49381;49.338;8.794;2022-11-15T06:00:33;99861.69;;;9.14
63158;BMP280;49381;49.338;8.794;2022-11-15T06:02:34;99868.47;;;9.18
63158;BMP280;49381;49.338;8.794;2022-11-15T06:04:34;99864.25;;;9.15
63158;BMP280;49381;49.338;8.794;2022-11-15T06:06:34;99865.91;;;9.13
63158;BMP280;49381;49.338;8.794;2022-11-15T06:08:35;99864.25;;;9.17
63158;BMP280;49381;49.338;8.794;2022-11-15T06:10:35;99863.41;;;9.15
63158;BMP280;49381;49.338;8.794;2022-11-15T06:12:35;99861.69;;;9.14
63158;BMP280;49381;49.338;8.794;2022-11-15T06:14:36;99866.78;;;9.15
63158;BMP280;49381;49.338;8.794;2022-11-15T06:16:37;99854.16;;;9.15
63158;BMP280;49381;49.338;8.794;2022-11-15T06:18:38;99849.09;;;9.15
63158;BMP280;49381;49.338;8.794;2022-11-15T06:20:39;99856.69;;;9.15
63158;BMP280;49381;49.338;8.794;2022-11-15T06:22:39;99859.19;;;9.12
63158;BMP280;49381;49.338;8.794;2022-11-15T06:24:39;99860.88;;;9.12
63158;BMP280;49381;49.338;8.794;2022-11-15T06:26:40;99856.66;;;9.17
63158;BMP280;49381;49.338;8.794;2022-11-15T06:28:40;99845.72;;;9.16
63158;BMP280;49381;49.338;8.794;2022-11-15T06:30:40;99842.34;;;9.17
63158;BMP280;49381;49.338;8.794;2022-11-15T06:32:42;99844.91;;;9.20
63158;BMP280;49381;49.338;8.794;2022-11-15T06:34:42;99841.53;;;9.21
63158;BMP280;49381;49.338;8.794;2022-11-15T06:36:43;99861.72;;;9.15
63158;BMP280;49381;49.338;8.794;2022-11-15T06:38:43;99861.69;;;9.14
63158;BMP280;49381;49.338;8.794;2022-11-15T06:40:44;99862.53;;;9.14
63158;BMP280;49381;49.338;8.794;2022-11-15T06:42:44;99872.66;;;9.14
63158;BMP280;49381;49.338;8.794;2022-11-15T06:44:44;99864.22;;;9.12
63158;BMP280;49381;49.338;8.794;2022-11-15T06:46:44;99861.69;;;9.14
63158;BMP280;49381;49.338;8.794;2022-11-15T06:48:46;99853.28;;;9.12
63158;BMP280;49381;49.338;8.794;2022-11-15T06:50:50;99846.50;;;9.05
63158;BMP280;49381;49.338;8.794;2022-11-15T06:52:50;99856.56;;;8.99
63158;BMP280;49381;49.338;8.794;2022-11-15T06:54:51;99855.75;;;9.04
63158;BMP280;49381;49.338;8.794;2022-11-15T06:56:51;99856.59;;;9.03
63158;BMP280;49381;49.338;8.794;2022-11-15T06:58:51;99861.69;;;9.06
63158;BMP280;49381;49.338;8.794;2022-11-15T07:00:52;99858.34;;;9.10
63158;BMP280;49381;49.338;8.794;2022-11-15T07:02:52;99852.44;;;9.14
63158;BMP280;49381;49.338;8.794;2022-11-15T07:04:54;99858.34;;;9.10
63158;BMP280;49381;49.338;8.794;2022-11-15T07:06:54;99849.88;;;9.08
63158;BMP280;49381;49.338;8.794;2022-11-15T07:08:55;99856.66;;;9.12
63158;BMP280;49381;49.338;8.794;2022-11-15T07:10:57;99860.03;;;9.14
63158;BMP280;49381;49.338;8.794;2022-11-15T07:12:58;99860.84;;;9.13
63158;BMP280;49381;49.338;8.794;2022-11-15T07:14:59;99861.72;;;9.17
63158;BMP280;49381;49.338;8.794;2022-11-15T07:16:59;99873.56;;;9.21
63158;BMP280;49381;49.338;8.794;2022-11-15T07:18:59;99878.59;;;9.22
63158;BMP280;49381;49.338;8.794;2022-11-15T07:21:02;99871.88;;;9.23
63158;BMP280;49381;49.338;8.794;2022-11-15T07:23:04;99872.72;;;9.20
63158;BMP280;49381;49.338;8.794;2022-11-15T07:25:04;99878.59;;;9.24
63158;BMP280;49381;49.338;8.794;2022-11-15T07:27:05;99887.06;;;9.27
63158;BMP280;49381;49.338;8.794;2022-11-15T07:29:05;99890.47;;;9.35
63158;BMP280;49381;49.338;8.794;2022-11-15T07:31:07;99884.56;;;9.39
63158;BMP280;49381;49.338;8.794;2022-11-15T07:33:08;99872.78;;;9.42
63158;BMP280;49381;49.338;8.794;2022-11-15T07:35:08;99880.38;;;9.41
63158;BMP280;49381;49.338;8.794;2022-11-15T07:37:10;99878.69;;;9.41
63158;BMP280;49381;49.338;8.794;2022-11-15T07:39:10;99871.13;;;9.40
63158;BMP280;49381;49.338;8.794;2022-11-15T07:41:11;99872.75;;;9.39
63158;BMP280;49381;49.338;8.794;2022-11-15T07:43:11;99870.28;;;9.47
63158;BMP280;49381;49.338;8.794;2022-11-15T07:45:11;99867.78;;;9.55
63158;BMP280;49381;49.338;8.794;2022-11-15T07:47:12;99877.09;;;9.59
63158;BMP280;49381;49.338;8.794;2022-11-15T07:49:12;99877.09;;;9.68
63158;BMP280;49381;49.338;8.794;2022-11-15T07:51:13;99877.09;;;9.68
63158;BMP280;49381;49.338;8.794;2022-11-15T07:53:15;99867.81;;;9.73
63158;BMP280;49381;49.338;8.794;2022-11-15T07:55:16;99880.47;;;9.72
63158;BMP280;49381;49.338;8.794;2022-11-15T07:57:16;99872.91;;;9.75
63158;BMP280;49381;49.338;8.794;2022-11-15T07:59:16;99879.66;;;9.80
63158;BMP280;49381;49.338;8.794;2022-11-15T08:01:17;99874.66;;;9.84
63158;BMP280;49381;49.338;8.794;2022-11-15T08:03:17;99875.50;;;9.85
63158;BMP280;49381;49.338;8.794;2022-11-15T08:05:17;99880.56;;;9.86
63158;BMP280;49381;49.338;8.794;2022-11-15T08:07:17;99872.94;;;9.94
63158;BMP280;49381;49.338;8.794;2022-11-15T08:09:19;99876.34;;;9.96
63158;BMP280;49381;49.338;8.794;2022-11-15T08:11:20;99864.53;;;10.01
63158;BMP280;49381;49.338;8.794;2022-11-15T08:13:20;99868.75;;;9.96
63158;BMP280;49381;49.338;8.794;2022-11-15T08:15:20;99862.00;;;9.96
63158;BMP280;49381;49.338;8.794;2022-11-15T08:17:21;99858.63;;;9.99
63158;BMP280;49381;49.338;8.794;2022-11-15T08:19:21;99860.34;;;10.00
63158;BMP280;49381;49.338;8.794;2022-11-15T08:21:22;99855.28;;;10.05
63158;BMP280;49381;49.338;8.794;2022-11-15T08:23:22;99855.28;;;10.05
63158;BMP280;49381;49.338;8.794;2022-11-15T08:25:24;99856.13;;;10.10
63158;BMP280;49381;49.338;8.794;2022-11-15T08:27:25;99844.31;;;10.15
63158;BMP280;49381;49.338;8.794;2022-11-15T08:29:25;99843.47;;;10.21
63158;BMP280;49381;49.338;8.794;2022-11-15T08:31:25;99841.78;;;10.26
63158;BMP280;49381;49.338;8.794;2022-11-15T08:33:26;99835.84;;;10.28
63158;BMP280;49381;49.338;8.794;2022-11-15T08:35:28;99835.00;;;10.32
63158;BMP280;49381;49.338;8.794;2022-11-15T08:37:28;99837.53;;;10.35
63158;BMP280;49381;49.338;8.794;2022-11-15T08:39:28;99835.00;;;10.38
63158;BMP280;49381;49.338;8.794;2022-11-15T08:41:32;99830.75;;;10.43
63158;BMP280;49381;49.338;8.794;2022-11-15T08:43:33;99833.31;;;10.44
63158;BMP280;49381;49.338;8.794;2022-11-15T08:45:34;99833.28;;;10.49
63158;BMP280;49381;49.338;8.794;2022-11-15T08:47:35;99837.53;;;10.50
63158;BMP280;49381;49.338;8.794;2022-11-15T08:49:35;99829.94;;;10.55
63158;BMP280;49381;49.338;8.794;2022-11-15T08:51:39;99831.59;;;10.58
63158;BMP280;49381;49.338;8.794;2022-11-15T08:53:39;99824.84;;;10.55
63158;BMP280;49381;49.338;8.794;2022-11-15T08:55:42;99822.31;;;10.57
63158;BMP280;49381;49.338;8.794;2022-11-15T08:57:44;99826.53;;;10.61
63158;BMP280;49381;49.338;8.794;2022-11-15T08:59:48;99820.59;;;10.63
63158;BMP280;49381;49.338;8.794;2022-11-15T09:01:51;99815.53;;;10.66
63158;BMP280;49381;49.338;8.794;2022-11-15T09:03:53;99825.69;;;10.65
63158;BMP280;49381;49.338;8.794;2022-11-15T09:05:54;99823.16;;;10.69
63158;BMP280;49381;49.338;8.794;2022-11-15T09:07:58;99814.66;;;10.73
63158;BMP280;49381;49.338;8.794;2022-11-15T09:09:58;99814.66;;;10.76
63158;BMP280;49381;49.338;8.794;2022-11-15T09:11:59;99810.44;;;10.78
63158;BMP280;49381;49.338;8.794;2022-11-15T09:14:00;99820.56;;;10.81
63158;BMP280;49381;49.338;8.794;2022-11-15T09:16:01;99813.78;;;10.83
63158;BMP280;49381;49.338;8.794;2022-11-15T09:18:01;99824.75;;;10.88
63158;BMP280;49381;49.338;8.794;2022-11-15T09:20:02;99813.78;;;10.92
63158;BMP280;49381;49.338;8.794;2022-11-15T09:22:05;99818.84;;;10.95
63158;BMP280;49381;49.338;8.794;2022-11-15T09:24:06;99821.38;;;10.96
63158;BMP280;49381;49.338;8.794;2022-11-15T09:26:07;99813.75;;;10.98
63158;BMP280;49381;49.338;8.794;2022-11-15T09:28:08;99810.34;;;11.03
63158;BMP280;49381;49.338;8.794;2022-11-15T09:30:10;99812.03;;;11.07
63158;BMP280;49381;49.338;8.794;2022-11-15T09:32:11;99814.59;;;11.08
63158;BMP280;49381;49.338;8.794;2022-11-15T09:34:11;99817.09;;;11.11
63158;BMP280;49381;49.338;8.794;2022-11-15T09:36:12;99817.94;;;11.15
63158;BMP280;49381;49.338;8.794;2022-11-15T09:38:12;99816.19;;;11.18
63158;BMP280;49381;49.338;8.794;2022-11-15T09:40:14;99809.44;;;11.22
63158;BMP280;49381;49.338;8.794;2022-11-15T09:42:32;99805.19;;;11.25
63158;BMP280;49381;49.338;8.794;2022-11-15T09:44:46;99804.31;;;11.28
63158;BMP280;49381;49.338;8.794;2022-11-15T09:46:56;99800.94;;;11.27
63158;BMP280;49381;49.338;8.794;2022-11-15T09:48:59;99805.97;;;11.33
63158;BMP280;49381;49.338;8.794;2022-11-15T09:51:02;99797.53;;;11.32
63158;BMP280;49381;49.338;8.794;2022-11-15T09:53:04;99789.91;;;11.35
63158;BMP280;49381;49.338;8.794;2022-11-15T09:55:07;99795.84;;;11.37
63158;BMP280;49381;49.338;8.794;2022-11-15T09:57:11;99786.53;;;11.35
63158;BMP280;49381;49.338;8.794;2022-11-15T09:59:25;99790.78;;;11.37
63158;BMP280;49381;49.338;8.794;2022-11-15T10:01:36;99784.00;;;11.44
63158;BMP280;49381;49.338;8.794;2022-11-15T10:03:41;99788.22;;;11.42
63158;BMP280;49381;49.338;8.794;2022-11-15T10:05:43;99787.34;;;11.47
63158;BMP280;49381;49.338;8.794;2022-11-15T10:07:48;99783.09;;;11.51
63158;BMP280;49381;49.338;8.794;2022-11-15T10:09:53;99783.91;;;11.57
63158;BMP280;49381;49.338;8.794;2022-11-15T10:11:54;99772.00;;;11.65
63158;BMP280;49381;49.338;8.794;2022-11-15T10:14:01;99771.97;;;11.69
63158;BMP280;49381;49.338;8.794;2022-11-15T10:16:08;99771.13;;;11.70
63158;BMP280;49381;49.338;8.794;2022-11-15T10:18:15;99766.03;;;11.73
63158;BMP280;49381;49.338;8.794;2022-11-15T10:20:22;99765.16;;;11.76
63158;BMP280;49381;49.338;8.794;2022-11-15T10:22:28;99754.13;;;11.81
63158;BMP280;49381;49.338;8.794;2022-11-15T10:24:35;99760.84;;;11.86
63158;BMP280;49381;49.338;8.794;2022-11-15T10:26:37;99754.00;;;11.93
63158;BMP280;49381;49.338;8.794;2022-11-15T10:28:37;99756.53;;;11.96
63158;BMP280;49381;49.338;8.794;2022-11-15T10:30:40;99748.91;;;11.96
63158;BMP280;49381;49.338;8.794;2022-11-15T10:32:43;99753.09;;;12.01
63158;BMP280;49381;49.338;8.794;2022-11-15T10:34:44;99752.22;;;12.05
63158;BMP280;49381;49.338;8.794;2022-11-15T10:36:47;99748.88;;;12.00
63158;BMP280;49381;49.338;8.794;2022-11-15T10:38:57;99742.09;;;12.04
63158;BMP280;49381;49.338;8.794;2022-11-15T10:41:07;99728.50;;;12.09
63158;BMP280;49381;49.338;8.794;2022-11-15T10:43:14;99740.34;;;12.07
63158;BMP280;49381;49.338;8.794;2022-11-15T10:45:28;99724.25;;;12.09
63158;BMP280;49381;49.338;8.794;2022-11-15T10:47:29;99722.53;;;12.13
63158;BMP280;49381;49.338;8.794;2022-11-15T10:49:31;99730.97;;;12.15
63158;BMP280;49381;49.338;8.794;2022-11-15T10:51:33;99719.97;;;12.14
63158;BMP280;49381;49.338;8.794;2022-11-15T10:53:44;99731.78;;;12.18
63158;BMP280;49381;49.338;8.794;2022-11-15T10:55:47;99725.84;;;12.19
63158;BMP280;49381;49.338;8.794;2022-11-15T10:57:50;99724.13;;;12.21
63158;BMP280;49381;49.338;8.794;2022-11-15T10:59:53;99719.81;;;12.29
63158;BMP280;49381;49.338;8.794;2022-11-15T11:01:54;99713.84;;;12.31
63158;BMP280;49381;49.338;8.794;2022-11-15T11:03:59;99715.53;;;12.34
63158;BMP280;49381;49.338;8.794;2022-11-15T11:06:05;99716.34;;;12.36
63158;BMP280;49381;49.338;8.794;2022-11-15T11:08:22;99719.78;;;12.33
63158;BMP280;49381;49.338;8.794;2022-11-15T11:10:24;99712.09;;;12.39
63158;BMP280;49381;49.338;8.794;2022-11-15T11:12:30;99706.06;;;12.46
63158;BMP280;49381;49.338;8.794;2022-11-15T11:14:33;99711.13;;;12.51
63158;BMP280;49381;49.338;8.794;2022-11-15T11:16:42;99698.31;;;12.56
63158;BMP280;49381;49.338;8.794;2022-11-15T11:18:48;99692.34;;;12.60
63158;BMP280;49381;49.338;8.794;2022-11-15T11:20:51;99685.53;;;12.62
63158;BMP280;49381;49.338;8.794;2022-11-15T11:23:03;99689.72;;;12.71
63158;BMP280;49381;49.338;8.794;2022-11-15T11:25:21;99680.38;;;12.74
63158;BMP280;49381;49.338;8.794;2022-11-15T11:27:36;99677.72;;;12.81
63158;BMP280;49381;49.338;8.794;2022-11-15T11:29:48;99674.34;;;12.81
63158;BMP280;49381;49.338;8.794;2022-11-15T11:31:57;99666.63;;;12.88
63158;BMP280;49381;49.338;8.794;2022-11-15T11:34:05;99668.25;;;12.91
63158;BMP280;49381;49.338;8.794;2022-11-15T11:36:15;99666.56;;;12.93
63158;BMP280;49381;49.338;8.794;2022-11-15T11:38:24;99665.69;;;12.94
63158;BMP280;49381;49.338;8.794;2022-11-15T11:40:33;99658.00;;;12.97
63158;BMP280;49381;49.338;8.794;2022-11-15T11:42:43;99659.63;;;13.04
63158;BMP280;49381;49.338;8.794;2022-11-15T11:44:51;99650.22;;;13.07
63158;BMP280;49381;49.338;8.794;2022-11-15T11:46:59;99639.22;;;13.08
63158;BMP280;49381;49.338;8.794;2022-11-15T11:49:04;99633.19;;;13.12
63158;BMP280;49381;49.338;8.794;2022-11-15T11:51:15;99630.59;;;13.16
63158;BMP280;49381;49.338;8.794;2022-11-15T11:53:24;99635.66;;;13.18
63158;BMP280;49381;49.338;8.794;2022-11-15T11:55:28;99627.19;;;13.17